createdAt,value
2022-09-27T00:03:44.841Z,10.60
2022-09-27T00:07:49.694Z,10.60
2022-09-27T00:11:52.412Z,10.60
2022-09-27T00:15:57.786Z,10.60
2022-09-27T00:20:01.393Z,10.70
2022-09-27T00:24:05.806Z,10.70
2022-09-27T00:28:09.720Z,10.70
2022-09-27T00:32:12.657Z,10.70
2022-09-27T00:36:15.529Z,10.70
2022-09-27T00:40:24.066Z,10.70
2022-09-27T00:45:05.286Z,10.70
2022-09-27T00:49:14.473Z,10.70
2022-09-27T00:53:21.439Z,10.70
2022-09-27T00:57:25.756Z,10.70
2022-09-27T01:01:30.420Z,10.70
2022-09-27T01:05:33.865Z,10.70
2022-09-27T01:09:36.816Z,10.70
2022-09-27T01:13:50.076Z,10.70
2022-09-27T01:18:04.981Z,10.70
2022-09-27T01:22:11.018Z,10.70
2022-09-27T01:26:21.610Z,10.70
2022-09-27T01:30:27.615Z,10.70
2022-09-27T01:34:37.327Z,10.70
2022-09-27T01:38:48.329Z,10.70
2022-09-27T01:43:01.407Z,10.70
2022-09-27T01:47:15.888Z,10.60
2022-09-27T01:51:31.296Z,10.60
2022-09-27T01:55:38.363Z,10.60
2022-09-27T02:00:12.696Z,10.50
2022-09-27T02:04:25.719Z,10.50
2022-09-27T02:08:50.229Z,10.50
2022-09-27T02:13:12.297Z,10.50
2022-09-27T02:17:24.779Z,10.50
2022-09-27T02:21:41.847Z,10.50
2022-09-27T02:25:51.553Z,10.50
2022-09-27T02:29:59.612Z,10.50
2022-09-27T02:34:05.790Z,10.50
2022-09-27T02:38:11.180Z,10.50
2022-09-27T02:42:14.031Z,10.40
2022-09-27T02:46:36.193Z,10.40
2022-09-27T02:51:01.673Z,10.50
2022-09-27T02:55:25.506Z,10.40
2022-09-27T02:59:51.026Z,10.40
2022-09-27T03:04:09.349Z,10.40
2022-09-27T03:08:13.623Z,10.40
2022-09-27T03:12:22.598Z,10.30
2022-09-27T03:16:25.506Z,10.30
2022-09-27T03:20:36.976Z,10.30
2022-09-27T03:24:47.534Z,10.30
2022-09-27T03:28:51.607Z,10.30
2022-09-27T03:32:54.664Z,10.30
2022-09-27T03:37:16.123Z,10.30
2022-09-27T03:41:18.925Z,10.30
2022-09-27T03:45:23.559Z,10.20
2022-09-27T03:49:27.108Z,10.20
2022-09-27T03:53:29.939Z,10.20
2022-09-27T03:57:32.836Z,10.20
2022-09-27T04:01:38.837Z,10.10
2022-09-27T04:06:01.220Z,10.10
2022-09-27T04:10:12.773Z,10.10
2022-09-27T04:14:15.744Z,10.10
2022-09-27T04:18:39.736Z,10.10
2022-09-27T04:23:01.152Z,10.10
2022-09-27T04:27:04.423Z,10.00
2022-09-27T04:31:07.826Z,10.00
2022-09-27T04:35:45.307Z,10.00
2022-09-27T04:39:49.042Z,10.00
2022-09-27T04:43:56.642Z,10.00
2022-09-27T04:48:01.946Z,10.00
2022-09-27T04:52:06.662Z,10.00
2022-09-27T04:56:09.832Z,10.00
2022-09-27T05:00:13.634Z,10.00
2022-09-27T05:04:17.340Z,10.00
2022-09-27T05:08:26.307Z,10.00
2022-09-27T05:12:52.138Z,10.00
2022-09-27T05:16:55.711Z,9.90
2022-09-27T05:21:17.078Z,9.90
2022-09-27T05:25:23.774Z,9.90
2022-09-27T05:29:26.598Z,9.80
2022-09-27T05:33:49.585Z,9.80
2022-09-27T05:38:08.997Z,9.80
2022-09-27T05:42:15.385Z,9.80
2022-09-27T05:46:18.760Z,9.80
2022-09-27T05:50:24.090Z,9.80
2022-09-27T05:54:27.652Z,9.80
2022-09-27T05:58:32.735Z,9.80
2022-09-27T06:02:54.591Z,9.80
2022-09-27T06:07:20.474Z,9.80
2022-09-27T06:11:23.448Z,9.80
2022-09-27T06:15:27.832Z,9.80
2022-09-27T06:19:30.686Z,9.80
2022-09-27T06:23:33.948Z,9.80
2022-09-27T06:27:45.421Z,9.80
2022-09-27T06:31:59.324Z,9.80
2022-09-27T06:36:11.957Z,9.80
2022-09-27T06:40:16.723Z,9.80
2022-09-27T06:44:31.095Z,9.80
2022-09-27T06:48:38.434Z,9.80
2022-09-27T06:52:51.012Z,9.80
2022-09-27T06:56:56.991Z,9.80
2022-09-27T07:01:03.653Z,9.80
2022-09-27T07:05:26.824Z,9.80
2022-09-27T07:09:48.073Z,9.80
2022-09-27T07:13:51.791Z,9.80
2022-09-27T07:17:59.096Z,9.80
2022-09-27T07:22:05.632Z,9.80
2022-09-27T07:26:10.470Z,9.90
2022-09-27T07:30:14.026Z,9.80
2022-09-27T07:34:18.970Z,9.80
2022-09-27T07:38:23.538Z,9.90
2022-09-27T07:42:28.705Z,9.90
2022-09-27T07:46:32.698Z,10.00
2022-09-27T07:50:57.358Z,10.10
2022-09-27T07:55:39.987Z,10.10
2022-09-27T07:59:53.437Z,10.20
2022-09-27T08:03:58.473Z,10.30
2022-09-27T08:08:02.369Z,10.30
2022-09-27T08:12:06.969Z,10.40
2022-09-27T08:16:11.070Z,10.50
2022-09-27T08:20:42.554Z,10.50
2022-09-27T08:25:22.501Z,10.50
2022-09-27T08:30:03.310Z,10.50
2022-09-27T08:34:06.141Z,10.60
2022-09-27T08:38:10.209Z,10.60
2022-09-27T08:42:24.974Z,10.70
2022-09-27T08:46:39.333Z,10.70
2022-09-27T08:50:44.870Z,10.80
2022-09-27T08:54:51.514Z,10.90
2022-09-27T08:58:59.855Z,11.20
2022-09-27T09:03:19.261Z,11.20
2022-09-27T09:07:46.949Z,11.10
2022-09-27T09:12:18.954Z,11.10
2022-09-27T09:16:32.691Z,11.30
2022-09-27T09:20:48.706Z,11.80
2022-09-27T09:25:03.794Z,12.10
2022-09-27T09:29:31.515Z,11.90
2022-09-27T09:33:40.184Z,11.70
2022-09-27T09:37:49.954Z,11.40
2022-09-27T09:42:06.247Z,11.40
2022-09-27T09:46:13.942Z,12.00
2022-09-27T09:50:20.023Z,12.40
2022-09-27T09:54:29.490Z,12.30
2022-09-27T09:58:41.499Z,12.00
2022-09-27T10:02:49.523Z,11.80
2022-09-27T10:06:58.488Z,11.60
2022-09-27T10:11:05.271Z,12.00
2022-09-27T10:15:25.029Z,12.40
2022-09-27T10:19:30.542Z,12.90
2022-09-27T10:23:35.354Z,12.70
2022-09-27T10:27:49.045Z,12.40
2022-09-27T10:31:57.964Z,12.00
2022-09-27T10:36:24.430Z,11.80
2022-09-27T10:40:30.879Z,11.40
2022-09-27T10:44:37.083Z,11.00
2022-09-27T10:49:18.743Z,11.00
2022-09-27T10:53:23.524Z,11.00
2022-09-27T10:57:36.455Z,11.00
2022-09-27T11:01:46.509Z,11.00
2022-09-27T11:05:55.660Z,11.00
2022-09-27T11:10:03.091Z,10.90
2022-09-27T11:14:19.604Z,10.80
2022-09-27T11:18:34.369Z,10.90
2022-09-27T11:23:13.772Z,11.00
2022-09-27T11:27:27.237Z,11.10
2022-09-27T11:31:42.898Z,11.20
2022-09-27T11:36:00.902Z,11.20
2022-09-27T11:40:18.774Z,11.10
2022-09-27T11:45:07.962Z,11.00
2022-09-27T11:49:30.054Z,10.90
2022-09-27T11:53:58.257Z,10.90
2022-09-27T11:58:11.231Z,11.00
2022-09-27T12:02:45.317Z,11.00
2022-09-27T12:06:57.049Z,11.10
2022-09-27T12:11:09.799Z,11.20
2022-09-27T12:15:17.702Z,11.50
2022-09-27T12:19:34.518Z,11.70
2022-09-27T12:23:49.917Z,11.80
2022-09-27T12:28:13.375Z,11.90
2022-09-27T12:32:21.862Z,11.70
2022-09-27T12:36:28.599Z,11.60
2022-09-27T12:40:35.347Z,11.40
2022-09-27T12:44:47.519Z,11.30
2022-09-27T12:49:01.252Z,11.20
2022-09-27T12:53:10.546Z,11.20
2022-09-27T12:57:25.537Z,11.30
2022-09-27T13:01:45.570Z,11.30
2022-09-27T13:06:33.667Z,11.30
2022-09-27T13:10:45.278Z,11.30
2022-09-27T13:15:02.943Z,11.30
2022-09-27T13:19:30.625Z,11.60
2022-09-27T13:23:52.220Z,11.60
2022-09-27T13:27:58.160Z,11.60
2022-09-27T13:32:28.263Z,11.60
2022-09-27T13:36:41.222Z,11.70
2022-09-27T13:40:47.626Z,11.80
2022-09-27T13:45:20.205Z,12.00
2022-09-27T13:49:32.029Z,12.10
2022-09-27T13:54:06.675Z,12.00
2022-09-27T13:58:35.294Z,11.90
2022-09-27T14:02:52.977Z,11.80
2022-09-27T14:07:00.168Z,11.70
2022-09-27T14:11:13.340Z,11.50
2022-09-27T14:15:21.758Z,11.10
2022-09-27T14:19:26.732Z,10.90
2022-09-27T14:23:30.101Z,10.80
2022-09-27T14:27:38.677Z,10.80
2022-09-27T14:32:05.193Z,10.70
2022-09-27T14:36:45.113Z,10.80
2022-09-27T14:40:59.406Z,10.80
2022-09-27T14:45:14.050Z,10.80
2022-09-27T14:49:22.004Z,10.80
2022-09-27T14:53:27.073Z,10.80
2022-09-27T14:57:33.755Z,10.80
2022-09-27T15:01:39.775Z,10.80
2022-09-27T15:05:43.720Z,10.80
2022-09-27T15:09:47.696Z,10.80
2022-09-27T15:13:53.499Z,10.80
2022-09-27T15:17:57.892Z,10.80
2022-09-27T15:22:31.984Z,10.90
2022-09-27T15:26:38.344Z,10.90
2022-09-27T15:30:43.158Z,10.90
2022-09-27T15:34:47.299Z,10.90
2022-09-27T15:39:08.459Z,10.90
2022-09-27T15:43:21.076Z,10.90
2022-09-27T15:47:48.187Z,11.00
2022-09-27T15:51:53.761Z,10.90
2022-09-27T15:55:56.457Z,10.90
2022-09-27T15:59:59.290Z,10.80
2022-09-27T16:04:02.527Z,10.80
2022-09-27T16:08:06.557Z,10.80
2022-09-27T16:12:10.174Z,10.70
2022-09-27T16:16:18.251Z,10.70
2022-09-27T16:20:27.208Z,10.70
2022-09-27T16:24:32.009Z,10.70
2022-09-27T16:28:35.436Z,10.60
2022-09-27T16:32:42.375Z,10.60
2022-09-27T16:36:45.158Z,10.60
2022-09-27T16:40:49.340Z,10.60
2022-09-27T16:44:52.070Z,10.50
2022-09-27T16:48:56.918Z,10.50
2022-09-27T16:53:00.175Z,10.60
2022-09-27T16:57:04.539Z,10.60
2022-09-27T17:01:08.268Z,10.50
2022-09-27T17:05:11.206Z,10.50
2022-09-27T17:09:13.942Z,10.50
2022-09-27T17:13:18.146Z,10.50
2022-09-27T17:17:20.866Z,10.40
2022-09-27T17:21:23.635Z,10.40
2022-09-27T17:25:26.435Z,10.40
2022-09-27T17:29:30.905Z,10.40
2022-09-27T17:33:41.482Z,10.40
2022-09-27T17:37:44.422Z,10.30
2022-09-27T17:41:47.175Z,10.30
2022-09-27T17:45:51.316Z,10.20
2022-09-27T17:50:11.782Z,10.20
2022-09-27T17:54:14.829Z,10.10
2022-09-27T17:58:17.799Z,10.10
2022-09-27T18:02:22.191Z,10.00
2022-09-27T18:06:25.862Z,9.90
2022-09-27T18:10:28.681Z,9.90
2022-09-27T18:14:31.381Z,9.80
2022-09-27T18:18:38.319Z,9.80
2022-09-27T18:22:41.013Z,9.70
2022-09-27T18:26:46.442Z,9.70
2022-09-27T18:30:49.226Z,9.70
2022-09-27T18:34:53.249Z,9.60
2022-09-27T18:38:58.144Z,9.60
2022-09-27T18:43:00.931Z,9.50
2022-09-27T18:47:03.884Z,9.50
2022-09-27T18:51:09.860Z,9.40
2022-09-27T18:55:12.836Z,9.40
2022-09-27T18:59:17.140Z,9.30
2022-09-27T19:03:20.172Z,9.30
2022-09-27T19:07:24.314Z,9.20
2022-09-27T19:11:28.383Z,9.20
2022-09-27T19:15:31.966Z,9.20
2022-09-27T19:19:34.873Z,9.20
2022-09-27T19:23:39.937Z,9.20
2022-09-27T19:27:43.381Z,9.20
2022-09-27T19:31:46.366Z,9.20
2022-09-27T19:35:49.213Z,9.20
2022-09-27T19:39:55.543Z,9.20
2022-09-27T19:43:58.669Z,9.20
2022-09-27T19:48:02.036Z,9.20
2022-09-27T19:52:05.233Z,9.20
2022-09-27T19:56:11.026Z,9.20
2022-09-27T20:00:14.035Z,9.20
2022-09-27T20:04:16.823Z,9.20
2022-09-27T20:08:19.565Z,9.20
2022-09-27T20:12:24.431Z,9.10
2022-09-27T20:16:28.834Z,9.10
2022-09-27T20:20:32.234Z,9.10
2022-09-27T20:24:34.982Z,9.10
2022-09-27T20:28:43.551Z,9.10
2022-09-27T20:33:06.358Z,9.00
2022-09-27T20:37:09.521Z,9.00
2022-09-27T20:41:14.482Z,9.00
2022-09-27T20:45:18.813Z,8.90
2022-09-27T20:49:21.522Z,8.90
2022-09-27T20:53:26.304Z,8.90
2022-09-27T20:57:53.190Z,8.90
2022-09-27T21:01:53.587Z,8.90
2022-09-27T21:05:56.955Z,8.80
2022-09-27T21:10:02.749Z,8.80
2022-09-27T21:14:05.551Z,8.80
2022-09-27T21:18:09.612Z,8.80
2022-09-27T21:22:14.433Z,8.80
2022-09-27T21:26:19.087Z,8.80
2022-09-27T21:30:24.170Z,8.80
2022-09-27T21:34:28.257Z,8.80
2022-09-27T21:38:31.296Z,8.80
2022-09-27T21:42:34.048Z,8.80
2022-09-27T21:46:40.319Z,8.80
2022-09-27T21:50:44.376Z,8.80
2022-09-27T21:54:47.099Z,8.90
2022-09-27T21:58:50.723Z,8.80
2022-09-27T22:02:57.770Z,8.80
2022-09-27T22:07:01.801Z,8.80
2022-09-27T22:11:05.534Z,8.90
2022-09-27T22:15:08.772Z,8.90
2022-09-27T22:19:13.236Z,9.00
2022-09-27T22:23:17.501Z,9.00
2022-09-27T22:27:20.245Z,9.00
2022-09-27T22:31:24.283Z,9.00
2022-09-27T22:35:27.028Z,9.10
2022-09-27T22:39:31.105Z,9.10
2022-09-27T22:43:33.916Z,9.10
2022-09-27T22:47:37.017Z,9.10
2022-09-27T22:51:39.733Z,9.10
2022-09-27T22:55:44.060Z,9.10
2022-09-27T22:59:46.800Z,9.10
2022-09-27T23:03:51.208Z,9.10
2022-09-27T23:07:54.613Z,9.10
2022-09-27T23:11:58.641Z,9.20
2022-09-27T23:16:03.029Z,9.20
2022-09-27T23:20:07.273Z,9.10
2022-09-27T23:24:11.857Z,9.10
2022-09-27T23:28:15.894Z,9.10
2022-09-27T23:32:18.627Z,9.10
2022-09-27T23:36:23.902Z,9.00
2022-09-27T23:40:26.760Z,9.00
2022-09-27T23:44:31.315Z,9.00
2022-09-27T23:48:34.762Z,8.90
2022-09-27T23:52:37.566Z,8.80
2022-09-27T23:56:40.343Z,8.90
